createdAt,value
2023-05-24T00:00:21.889Z,30.98
2023-05-24T00:02:51.463Z,26.58
2023-05-24T00:05:22.668Z,27.75
2023-05-24T00:07:52.349Z,24.83
2023-05-24T00:10:24.955Z,21.05
2023-05-24T00:12:57.939Z,23.88
2023-05-24T00:15:24.665Z,25.02
2023-05-24T00:17:51.618Z,20.90
2023-05-24T00:20:20.680Z,24.13
2023-05-24T00:22:47.585Z,27.00
2023-05-24T00:25:14.143Z,32.28
2023-05-24T00:27:40.774Z,24.88
2023-05-24T00:30:10.983Z,23.33
2023-05-24T00:32:37.515Z,26.00
2023-05-24T00:35:04.448Z,26.98
2023-05-24T00:37:30.952Z,22.70
2023-05-24T00:39:57.826Z,19.08
2023-05-24T00:42:24.361Z,20.60
2023-05-24T00:44:50.909Z,23.35
2023-05-24T00:47:21.027Z,26.88
2023-05-24T00:49:47.666Z,23.40
2023-05-24T00:52:14.510Z,20.98
2023-05-24T00:54:44.797Z,26.23
2023-05-24T00:57:13.991Z,30.30
2023-05-24T00:59:41.116Z,24.45
2023-05-24T01:02:10.782Z,26.90
2023-05-24T01:04:38.114Z,27.20
2023-05-24T01:07:27.379Z,28.77
2023-05-24T01:10:11.448Z,23.40
2023-05-24T01:13:05.730Z,25.58
2023-05-24T01:15:46.088Z,28.40
2023-05-24T01:18:33.243Z,23.13
2023-05-24T01:21:14.408Z,23.20
2023-05-24T01:24:18.183Z,25.50
2023-05-24T01:27:03.110Z,28.70
2023-05-24T01:29:31.331Z,25.42
2023-05-24T01:31:58.130Z,27.77
2023-05-24T01:34:27.903Z,30.92
2023-05-24T01:36:54.709Z,25.63
2023-05-24T01:39:22.861Z,36.72
2023-05-24T01:42:13.620Z,27.65
2023-05-24T01:44:51.095Z,39.00
2023-05-24T01:47:44.800Z,26.55
2023-05-24T01:50:26.951Z,31.33
2023-05-24T01:52:58.227Z,29.83
2023-05-24T01:55:29.207Z,29.35
2023-05-24T01:58:00.794Z,25.40
2023-05-24T02:00:27.520Z,29.02
2023-05-24T02:02:55.204Z,33.80
2023-05-24T02:05:22.013Z,32.55
2023-05-24T02:07:48.598Z,33.08
2023-05-24T02:10:15.150Z,30.00
2023-05-24T02:12:41.632Z,30.60
2023-05-24T02:15:09.222Z,24.63
2023-05-24T02:17:35.977Z,36.22
2023-05-24T02:20:03.981Z,36.78
2023-05-24T02:22:30.580Z,41.28
2023-05-24T02:24:57.755Z,27.92
2023-05-24T02:27:24.306Z,33.83
2023-05-24T02:29:50.870Z,33.30
2023-05-24T02:32:17.399Z,29.17
2023-05-24T02:34:44.249Z,25.70
2023-05-24T02:37:14.628Z,34.45
2023-05-24T02:39:42.244Z,36.13
2023-05-24T02:42:09.177Z,36.00
2023-05-24T02:44:35.698Z,33.95
2023-05-24T02:47:02.255Z,27.58
2023-05-24T02:49:28.819Z,28.83
2023-05-24T02:51:55.476Z,33.40
2023-05-24T02:54:21.956Z,33.65
2023-05-24T02:56:48.593Z,39.00
2023-05-24T02:59:15.161Z,37.85
2023-05-24T03:01:41.754Z,29.02
2023-05-24T03:04:08.404Z,41.63
2023-05-24T03:06:34.955Z,29.83
2023-05-24T03:09:01.781Z,44.33
2023-05-24T03:11:28.315Z,36.35
2023-05-24T03:13:54.909Z,37.10
2023-05-24T03:16:21.523Z,38.75
2023-05-24T03:18:50.755Z,37.83
2023-05-24T03:21:20.856Z,40.45
2023-05-24T03:23:47.640Z,40.85
2023-05-24T03:26:17.203Z,37.35
2023-05-24T03:28:44.405Z,36.55
2023-05-24T03:31:12.284Z,44.05
2023-05-24T03:33:39.028Z,39.15
2023-05-24T03:36:06.737Z,38.95
2023-05-24T03:38:33.824Z,43.45
2023-05-24T03:41:00.590Z,38.35
2023-05-24T03:43:27.077Z,36.67
2023-05-24T03:45:53.684Z,31.15
2023-05-24T03:48:23.100Z,44.28
2023-05-24T03:50:52.304Z,43.83
2023-05-24T03:53:20.516Z,48.60
2023-05-24T03:55:48.843Z,38.38
2023-05-24T03:58:15.490Z,39.83
2023-05-24T04:00:42.195Z,38.55
2023-05-24T04:03:09.135Z,40.85
2023-05-24T04:05:35.838Z,44.10
2023-05-24T04:08:02.911Z,47.65
2023-05-24T04:10:29.589Z,40.45
2023-05-24T04:12:57.383Z,40.10
2023-05-24T04:15:24.243Z,40.65
2023-05-24T04:17:55.132Z,45.83
2023-05-24T04:20:27.113Z,41.00
2023-05-24T04:22:54.347Z,44.25
2023-05-24T04:25:20.980Z,45.70
2023-05-24T04:27:48.744Z,41.75
2023-05-24T04:30:18.658Z,41.85
2023-05-24T04:32:45.353Z,43.15
2023-05-24T04:35:12.157Z,40.30
2023-05-24T04:37:39.860Z,48.08
2023-05-24T04:40:08.108Z,43.58
2023-05-24T04:42:35.387Z,40.58
2023-05-24T04:45:02.309Z,45.50
2023-05-24T04:47:28.992Z,42.75
2023-05-24T04:49:55.587Z,45.85
2023-05-24T04:52:22.721Z,38.83
2023-05-24T04:54:49.928Z,40.05
2023-05-24T04:57:17.125Z,42.13
2023-05-24T04:59:44.393Z,51.05
2023-05-24T05:02:11.130Z,46.65
2023-05-24T05:04:37.723Z,44.63
2023-05-24T05:07:04.355Z,46.80
2023-05-24T05:09:34.216Z,57.55
2023-05-24T05:12:00.773Z,55.28
2023-05-24T05:14:29.427Z,54.03
2023-05-24T05:16:56.161Z,39.53
2023-05-24T05:19:25.625Z,49.80
2023-05-24T05:21:52.421Z,41.55
2023-05-24T05:24:19.004Z,40.58
2023-05-24T05:26:45.716Z,47.75
2023-05-24T05:29:12.251Z,40.72
2023-05-24T05:31:39.735Z,34.72
2023-05-24T05:34:09.717Z,45.45
2023-05-24T05:36:41.043Z,44.67
2023-05-24T05:39:10.989Z,39.78
2023-05-24T05:41:45.792Z,41.67
2023-05-24T05:44:13.525Z,43.33
2023-05-24T05:46:40.418Z,41.97
2023-05-24T05:49:07.133Z,43.47
2023-05-24T05:51:33.679Z,40.55
2023-05-24T05:54:00.236Z,47.53
2023-05-24T05:56:27.726Z,50.00
2023-05-24T05:58:54.318Z,46.45
2023-05-24T06:01:20.943Z,43.55
2023-05-24T06:03:47.810Z,50.20
2023-05-24T06:06:14.515Z,34.80
2023-05-24T06:08:41.052Z,39.03
2023-05-24T06:11:07.713Z,38.60
2023-05-24T06:13:34.325Z,35.97
2023-05-24T06:16:01.330Z,45.80
2023-05-24T06:18:30.553Z,38.38
2023-05-24T06:20:57.198Z,44.40
2023-05-24T06:23:24.046Z,45.15
2023-05-24T06:25:50.815Z,42.13
2023-05-24T06:28:20.395Z,38.67
2023-05-24T06:30:47.582Z,41.85
2023-05-24T06:33:14.288Z,50.72
2023-05-24T06:35:40.918Z,44.83
2023-05-24T06:38:07.548Z,46.25
2023-05-24T06:40:34.053Z,34.45
2023-05-24T06:43:00.666Z,46.15
2023-05-24T06:45:27.156Z,50.30
2023-05-24T06:47:53.726Z,40.22
2023-05-24T06:50:20.325Z,41.10
2023-05-24T06:52:46.829Z,44.33
2023-05-24T06:55:13.770Z,39.63
2023-05-24T06:57:40.305Z,42.97
2023-05-24T07:00:12.414Z,39.28
2023-05-24T07:02:39.435Z,46.78
2023-05-24T07:05:08.361Z,44.00
2023-05-24T07:07:34.878Z,39.92
2023-05-24T07:10:01.525Z,43.00
2023-05-24T07:12:28.026Z,32.78
2023-05-24T07:14:56.257Z,38.42
2023-05-24T07:17:22.854Z,32.55
2023-05-24T07:19:49.501Z,35.85
2023-05-24T07:22:16.590Z,37.38
2023-05-24T07:24:43.202Z,35.83
2023-05-24T07:27:10.015Z,34.40
2023-05-24T07:29:36.818Z,43.38
2023-05-24T07:32:04.036Z,34.13
2023-05-24T07:34:31.301Z,31.20
2023-05-24T07:37:00.644Z,37.17
2023-05-24T07:39:27.586Z,37.50
2023-05-24T07:41:54.677Z,43.15
2023-05-24T07:44:21.238Z,38.60
2023-05-24T07:46:47.800Z,35.17
2023-05-24T07:49:14.353Z,36.13
2023-05-24T07:51:40.911Z,36.35
2023-05-24T07:54:07.502Z,33.30
2023-05-24T07:56:34.054Z,39.53
2023-05-24T07:59:04.794Z,28.77
2023-05-24T08:01:34.363Z,27.73
2023-05-24T08:04:02.797Z,29.48
2023-05-24T08:06:30.215Z,36.55
2023-05-24T08:08:56.725Z,29.58
2023-05-24T08:11:23.638Z,31.95
2023-05-24T08:13:50.236Z,36.15
2023-05-24T08:16:16.809Z,37.55
2023-05-24T08:18:43.326Z,33.85
2023-05-24T08:21:09.866Z,36.70
2023-05-24T08:23:36.581Z,35.28
2023-05-24T08:26:03.170Z,34.35
2023-05-24T08:28:29.792Z,36.10
2023-05-24T08:30:56.334Z,39.35
2023-05-24T08:33:25.815Z,32.70
2023-05-24T08:35:52.341Z,29.95
2023-05-24T08:38:18.996Z,37.95
2023-05-24T08:40:46.041Z,28.15
2023-05-24T08:43:12.869Z,26.10
2023-05-24T08:45:39.945Z,29.98
2023-05-24T08:48:07.362Z,33.83
2023-05-24T08:50:34.843Z,30.27
2023-05-24T08:53:02.915Z,30.05
2023-05-24T08:55:33.618Z,30.40
2023-05-24T08:58:00.792Z,33.42
2023-05-24T09:00:27.542Z,29.85
2023-05-24T09:02:54.273Z,25.90
2023-05-24T09:05:24.224Z,29.73
2023-05-24T09:07:52.432Z,26.40
2023-05-24T09:10:21.707Z,30.05
2023-05-24T09:12:55.276Z,34.85
2023-05-24T09:15:21.893Z,21.88
2023-05-24T09:17:48.479Z,28.98
2023-05-24T09:20:15.487Z,28.65
2023-05-24T09:22:43.191Z,32.10
2023-05-24T09:25:12.682Z,28.30
2023-05-24T09:27:39.425Z,23.50
2023-05-24T09:30:10.965Z,24.27
2023-05-24T09:32:37.970Z,21.85
2023-05-24T09:35:08.467Z,26.48
2023-05-24T09:37:38.547Z,24.05
2023-05-24T09:40:07.097Z,26.92
2023-05-24T09:42:33.851Z,18.35
2023-05-24T09:45:02.242Z,23.65
2023-05-24T09:47:33.630Z,21.02
2023-05-24T09:50:00.976Z,21.65
2023-05-24T09:52:27.973Z,27.10
2023-05-24T09:54:55.018Z,23.73
2023-05-24T09:57:22.903Z,23.58
2023-05-24T09:59:50.286Z,18.67
2023-05-24T10:02:20.484Z,20.60
2023-05-24T10:04:47.724Z,20.15
2023-05-24T10:07:16.187Z,18.10
2023-05-24T10:09:44.967Z,21.67
2023-05-24T10:12:11.515Z,17.88
2023-05-24T10:14:39.023Z,26.80
2023-05-24T10:17:07.020Z,20.73
2023-05-24T10:19:34.769Z,25.88
2023-05-24T10:22:05.864Z,21.05
2023-05-24T10:24:36.662Z,22.48
2023-05-24T10:27:07.694Z,24.23
2023-05-24T10:29:48.912Z,27.40
2023-05-24T10:32:18.908Z,21.20
2023-05-24T10:34:46.768Z,26.63
2023-05-24T10:37:13.894Z,29.60
2023-05-24T10:39:42.007Z,33.42
2023-05-24T10:42:09.910Z,26.50
2023-05-24T10:44:37.246Z,20.35
2023-05-24T10:47:15.654Z,27.08
2023-05-24T10:49:55.079Z,23.20
2023-05-24T10:52:21.648Z,24.10
2023-05-24T10:55:14.268Z,28.85
2023-05-24T10:57:41.736Z,23.40
2023-05-24T11:00:33.906Z,23.40
2023-05-24T11:03:02.330Z,23.40
2023-05-24T11:05:36.500Z,20.75
2023-05-24T11:08:04.210Z,16.80
2023-05-24T11:10:31.782Z,17.70
2023-05-24T11:13:02.457Z,13.98
2023-05-24T11:15:32.153Z,11.77
2023-05-24T11:18:17.387Z,14.60
2023-05-24T11:20:48.149Z,16.48
2023-05-24T11:23:16.160Z,11.68
2023-05-24T11:25:43.249Z,14.88
2023-05-24T11:28:11.906Z,12.27
2023-05-24T11:30:42.532Z,12.32
2023-05-24T11:33:20.087Z,10.57
2023-05-24T11:35:47.472Z,11.88
2023-05-24T11:38:15.858Z,7.60
2023-05-24T11:40:44.941Z,8.02
2023-05-24T11:43:21.852Z,8.38
2023-05-24T11:45:49.842Z,6.25
2023-05-24T11:48:18.577Z,9.63
2023-05-24T11:50:50.233Z,7.75
2023-05-24T11:53:19.680Z,6.70
2023-05-24T11:55:46.436Z,5.43
2023-05-24T11:58:38.592Z,7.57
2023-05-24T12:03:32.938Z,8.63
2023-05-24T12:05:59.738Z,6.45
2023-05-24T12:08:26.335Z,8.80
2023-05-24T12:10:52.971Z,7.05
2023-05-24T12:13:25.499Z,8.65
2023-05-24T12:15:56.295Z,11.20
2023-05-24T12:18:28.696Z,11.82
2023-05-24T12:20:55.402Z,9.98
2023-05-24T12:23:31.999Z,10.05
2023-05-24T12:26:02.365Z,12.18
2023-05-24T12:28:36.317Z,11.43
2023-05-24T12:31:04.429Z,10.38
2023-05-24T12:33:31.626Z,10.90
2023-05-24T12:35:59.024Z,9.95
2023-05-24T12:38:25.985Z,9.27
2023-05-24T12:41:10.860Z,10.63
2023-05-24T12:43:39.313Z,12.20
2023-05-24T12:46:05.827Z,6.05
2023-05-24T12:48:32.559Z,6.03
2023-05-24T12:50:59.239Z,7.93
2023-05-24T12:53:26.248Z,7.45
2023-05-24T12:55:56.140Z,10.10
2023-05-24T12:58:22.793Z,16.05
2023-05-24T13:00:51.464Z,17.88
2023-05-24T13:03:18.405Z,10.63
2023-05-24T13:05:46.123Z,16.70
2023-05-24T13:08:13.549Z,19.88
2023-05-24T13:10:40.979Z,19.08
2023-05-24T13:13:07.732Z,14.90
2023-05-24T13:15:34.403Z,14.07
2023-05-24T13:18:00.963Z,15.63
2023-05-24T13:20:27.621Z,13.68
2023-05-24T13:22:54.206Z,13.90
2023-05-24T13:25:22.568Z,17.63
2023-05-24T13:27:49.199Z,13.55
2023-05-24T13:30:17.200Z,14.95
2023-05-24T13:32:43.893Z,13.20
2023-05-24T13:35:10.444Z,14.43
2023-05-24T13:37:36.965Z,18.20
2023-05-24T13:40:04.312Z,16.20
2023-05-24T13:42:31.035Z,16.42
2023-05-24T13:44:59.180Z,13.70
2023-05-24T13:47:38.741Z,17.02
2023-05-24T13:50:06.093Z,16.67
2023-05-24T13:52:32.920Z,20.10
2023-05-24T13:54:59.500Z,19.35
2023-05-24T13:57:31.298Z,15.32
2023-05-24T14:00:09.012Z,18.10
2023-05-24T14:02:35.648Z,17.48
2023-05-24T14:05:13.505Z,17.55
2023-05-24T14:07:48.738Z,17.45
2023-05-24T14:10:15.901Z,18.10
2023-05-24T14:12:43.591Z,19.73
2023-05-24T14:15:10.685Z,16.73
2023-05-24T14:17:37.222Z,16.67
2023-05-24T14:20:04.203Z,18.55
2023-05-24T14:22:30.977Z,14.20
2023-05-24T14:24:57.650Z,13.88
2023-05-24T14:27:24.249Z,11.80
2023-05-24T14:29:50.852Z,15.98
2023-05-24T14:32:17.857Z,13.93
2023-05-24T14:34:44.405Z,9.73
2023-05-24T14:37:11.086Z,10.65
2023-05-24T14:39:37.585Z,8.75
2023-05-24T14:42:04.285Z,7.20
2023-05-24T14:44:30.929Z,8.55
2023-05-24T14:46:57.482Z,9.60
2023-05-24T14:49:24.030Z,10.57
2023-05-24T14:51:50.592Z,9.77
2023-05-24T14:54:17.129Z,6.82
2023-05-24T14:56:44.892Z,6.93
2023-05-24T14:59:11.392Z,6.80
2023-05-24T15:01:38.103Z,10.82
2023-05-24T15:04:04.706Z,7.53
2023-05-24T15:06:35.435Z,8.43
2023-05-24T15:09:02.732Z,9.80
2023-05-24T15:11:32.302Z,8.73
2023-05-24T15:13:59.356Z,11.00
2023-05-24T15:16:26.835Z,7.25
2023-05-24T15:18:53.875Z,8.18
2023-05-24T15:21:21.278Z,6.03
2023-05-24T15:23:48.454Z,7.78
2023-05-24T15:26:14.954Z,6.95
2023-05-24T15:28:41.656Z,9.90
2023-05-24T15:31:08.212Z,8.07
2023-05-24T15:33:36.262Z,8.50
2023-05-24T15:36:04.114Z,7.50
2023-05-24T15:38:31.020Z,8.98
2023-05-24T15:40:57.518Z,6.85
2023-05-24T15:43:24.069Z,7.60
2023-05-24T15:45:51.054Z,12.35
2023-05-24T15:48:17.584Z,8.23
2023-05-24T15:51:22.120Z,11.65
2023-05-24T15:53:30.911Z,11.65
2023-05-24T15:55:57.520Z,13.98
2023-05-24T15:58:27.318Z,10.25
2023-05-24T16:00:54.459Z,9.85
2023-05-24T16:03:21.110Z,13.77
2023-05-24T16:05:50.649Z,14.52
2023-05-24T16:08:17.902Z,12.50
2023-05-24T16:10:44.999Z,15.40
2023-05-24T16:13:12.010Z,12.68
2023-05-24T16:15:40.941Z,14.82
2023-05-24T16:18:08.407Z,12.50
2023-05-24T16:20:35.200Z,15.32
2023-05-24T16:23:03.105Z,13.23
2023-05-24T16:25:32.232Z,15.63
2023-05-24T16:28:00.277Z,13.63
2023-05-24T16:30:27.035Z,11.90
2023-05-24T16:32:53.547Z,13.55
2023-05-24T16:35:20.271Z,14.82
2023-05-24T16:37:48.282Z,12.70
2023-05-24T16:40:14.871Z,10.15
2023-05-24T16:42:41.477Z,9.48
2023-05-24T16:45:08.300Z,7.97
2023-05-24T16:47:35.004Z,14.63
2023-05-24T16:50:01.563Z,19.85
2023-05-24T16:52:28.168Z,15.32
2023-05-24T16:54:54.668Z,9.23
2023-05-24T16:57:21.213Z,10.45
2023-05-24T16:59:50.629Z,15.32
2023-05-24T17:02:17.376Z,17.60
2023-05-24T17:04:43.876Z,15.60
2023-05-24T17:07:10.427Z,20.13
2023-05-24T17:09:37.985Z,12.73
2023-05-24T17:12:04.761Z,15.88
2023-05-24T17:14:31.511Z,15.90
2023-05-24T17:16:58.018Z,13.60
2023-05-24T17:19:25.229Z,12.52
2023-05-24T17:21:51.845Z,14.43
2023-05-24T17:24:18.327Z,11.48
2023-05-24T17:26:45.365Z,12.35
2023-05-24T17:29:11.890Z,12.73
2023-05-24T17:31:38.538Z,14.90
2023-05-24T17:34:07.423Z,15.88
2023-05-24T17:36:36.377Z,16.35
2023-05-24T17:39:03.288Z,17.60
2023-05-24T17:41:29.870Z,17.38
2023-05-24T17:43:56.385Z,20.70
2023-05-24T17:46:22.931Z,18.73
2023-05-24T17:48:51.034Z,21.30
2023-05-24T17:51:20.712Z,14.85
2023-05-24T17:53:47.400Z,13.70
2023-05-24T17:56:13.906Z,17.23
2023-05-24T17:58:40.645Z,14.98
2023-05-24T18:01:08.770Z,18.73
2023-05-24T18:03:40.725Z,17.42
2023-05-24T18:06:08.418Z,17.88
2023-05-24T18:08:37.781Z,18.02
2023-05-24T18:11:08.306Z,19.73
2023-05-24T18:13:39.039Z,19.10
2023-05-24T18:16:06.594Z,18.08
2023-05-24T18:18:33.254Z,30.17
2023-05-24T18:20:59.895Z,20.50
2023-05-24T18:23:26.493Z,19.85
2023-05-24T18:26:00.714Z,18.77
2023-05-24T18:28:29.854Z,21.48
2023-05-24T18:30:56.458Z,19.13
2023-05-24T18:33:23.278Z,15.73
2023-05-24T18:35:50.013Z,23.17
2023-05-24T18:38:16.552Z,14.05
2023-05-24T18:40:43.098Z,18.40
2023-05-24T18:43:09.611Z,20.30
2023-05-24T18:45:36.144Z,12.82
2023-05-24T18:48:02.801Z,15.27
2023-05-24T18:50:29.374Z,16.30
2023-05-24T18:52:55.930Z,17.40
2023-05-24T18:55:22.456Z,18.23
2023-05-24T18:57:49.230Z,19.15
2023-05-24T19:00:19.319Z,23.75
2023-05-24T19:02:46.110Z,20.95
2023-05-24T19:05:12.985Z,21.83
2023-05-24T19:07:39.541Z,18.42
2023-05-24T19:10:07.019Z,14.90
2023-05-24T19:12:33.986Z,22.73
2023-05-24T19:15:02.757Z,15.65
2023-05-24T19:17:29.341Z,21.20
2023-05-24T19:19:55.937Z,19.40
2023-05-24T19:22:22.768Z,23.92
2023-05-24T19:24:49.375Z,23.67
2023-05-24T19:27:15.892Z,18.40
2023-05-24T19:29:42.564Z,19.65
2023-05-24T19:32:09.186Z,24.20
2023-05-24T19:34:37.206Z,25.98
2023-05-24T19:37:04.158Z,25.33
2023-05-24T19:39:30.846Z,30.35
2023-05-24T19:41:57.418Z,27.63
2023-05-24T19:44:23.953Z,20.92
2023-05-24T19:46:50.563Z,21.60
2023-05-24T19:49:20.450Z,19.63
2023-05-24T19:51:46.989Z,20.80
2023-05-24T19:54:16.763Z,19.00
2023-05-24T19:56:43.356Z,21.55
2023-05-24T19:59:19.254Z,15.88
2023-05-24T20:01:45.962Z,18.08
2023-05-24T20:04:13.064Z,18.88
2023-05-24T20:06:43.461Z,18.50
2023-05-24T20:09:10.086Z,21.13
2023-05-24T20:11:36.606Z,23.75
2023-05-24T20:14:03.151Z,23.55
2023-05-24T20:16:30.826Z,22.05
2023-05-24T20:18:59.634Z,28.45
2023-05-24T20:21:26.232Z,26.92
2023-05-24T20:23:57.763Z,27.60
2023-05-24T20:26:25.690Z,22.00
2023-05-24T20:28:52.184Z,23.45
2023-05-24T20:31:18.760Z,23.17
2023-05-24T20:33:48.984Z,25.65
2023-05-24T20:36:22.126Z,25.10
2023-05-24T20:38:51.344Z,24.67
2023-05-24T20:41:21.446Z,26.70
2023-05-24T20:43:48.565Z,30.25
2023-05-24T20:46:15.185Z,27.23
2023-05-24T20:48:48.474Z,33.20
2023-05-24T20:51:15.014Z,31.63
2023-05-24T20:53:41.659Z,25.65
2023-05-24T20:56:11.574Z,26.83
2023-05-24T20:58:41.507Z,30.05
2023-05-24T21:01:08.677Z,27.02
2023-05-24T21:03:35.735Z,25.27
2023-05-24T21:06:02.715Z,29.25
2023-05-24T21:08:29.277Z,28.73
2023-05-24T21:10:56.499Z,30.77
2023-05-24T21:13:25.432Z,30.85
2023-05-24T21:15:52.114Z,30.25
2023-05-24T21:18:20.211Z,35.42
2023-05-24T21:20:51.827Z,30.98
2023-05-24T21:23:18.352Z,33.33
2023-05-24T21:25:47.817Z,31.45
2023-05-24T21:28:14.535Z,29.50
2023-05-24T21:30:41.107Z,34.28
2023-05-24T21:33:07.769Z,30.17
2023-05-24T21:35:34.372Z,33.67
2023-05-24T21:38:03.814Z,26.65
2023-05-24T21:40:33.113Z,35.67
2023-05-24T21:42:59.629Z,27.15
2023-05-24T21:45:29.056Z,28.85
2023-05-24T21:47:55.561Z,32.13
2023-05-24T21:50:23.107Z,32.13
2023-05-24T21:52:49.608Z,37.30
2023-05-24T21:55:16.161Z,28.75
2023-05-24T21:57:42.688Z,33.85
2023-05-24T22:00:09.821Z,32.13
2023-05-24T22:02:37.425Z,26.50
2023-05-24T22:05:14.378Z,30.25
2023-05-24T22:07:48.058Z,36.35
2023-05-24T22:10:14.920Z,35.22
2023-05-24T22:12:41.430Z,30.73
2023-05-24T22:15:08.611Z,30.48
2023-05-24T22:17:36.868Z,34.88
2023-05-24T22:20:07.472Z,28.90
2023-05-24T22:22:34.697Z,34.28
2023-05-24T22:25:02.007Z,34.38
2023-05-24T22:27:29.068Z,37.42
2023-05-24T22:30:00.319Z,31.40
2023-05-24T22:32:29.863Z,34.95
2023-05-24T22:34:56.512Z,30.77
2023-05-24T22:37:22.996Z,28.70
2023-05-24T22:39:49.551Z,31.23
2023-05-24T22:42:19.264Z,29.15
2023-05-24T22:44:48.098Z,34.85
2023-05-24T22:47:16.987Z,31.15
2023-05-24T22:49:46.510Z,37.80
2023-05-24T22:52:17.239Z,33.15
2023-05-24T22:54:46.883Z,33.47
2023-05-24T22:57:13.391Z,35.65
2023-05-24T22:59:39.869Z,37.38
2023-05-24T23:02:06.402Z,35.50
2023-05-24T23:04:33.571Z,31.25
2023-05-24T23:07:03.167Z,28.08
2023-05-24T23:09:35.455Z,34.05
2023-05-24T23:12:10.059Z,31.80
2023-05-24T23:14:38.334Z,40.92
2023-05-24T23:17:17.166Z,32.97
2023-05-24T23:19:51.422Z,35.60
2023-05-24T23:22:24.453Z,28.05
2023-05-24T23:24:50.964Z,38.05
2023-05-24T23:27:17.707Z,31.48
2023-05-24T23:29:44.224Z,29.67
2023-05-24T23:32:10.850Z,37.20
2023-05-24T23:34:38.022Z,33.83
2023-05-24T23:37:09.030Z,37.60
2023-05-24T23:39:38.789Z,36.72
2023-05-24T23:42:06.700Z,34.75
2023-05-24T23:44:33.381Z,36.70
2023-05-24T23:46:59.986Z,32.00
2023-05-24T23:49:26.563Z,37.20
2023-05-24T23:51:53.187Z,34.08
2023-05-24T23:54:22.761Z,31.80
2023-05-24T23:56:52.750Z,36.78
2023-05-24T23:59:19.212Z,40.67
